• Join FlightAware (Why Join?)
  • Login
  • US Flag 
Gobble Gobble! 
12:30AM EST


 

Airport Tracker/Info


-or-


 

Live Flight TrackerFlight Track Log ✈ SWA4021 ✈ 22-Sep-2013 ✈ KMCI - KPHX

Flight Track Log - Related Links

Times and Time Zones

All times are in EDT time to prevent confusion due to time zone crossing. See the SWA4021 flight status page for this flight to view local times or setup timezone preferences in your user account.

Time Position Orientation Groundspeed Altitude Reporting Facility
EDT Latitude Longitude Course Direction KTS MPH feet Rate Location/Type
01:14PM 39.2225 -94.7839 213° Southwest 224 258 4,500  Level Kansas City Center
01:15PM 39.1689 -94.8628 229° Southwest 273 314 7,500 2,820 Climbing Kansas City Center
01:16PM 39.1678 -94.9597 269° West 279 321 10,400 1,860 Climbing Kansas City Center
01:17PM 39.1653 -95.0717 268° West 332 382 11,400 2,040 Climbing Kansas City Center
01:18PM 39.1631 -95.2150 269° West 344 396 14,700 2,520 Climbing Kansas City Center
01:19PM 39.1600 -95.3422 268° West 357 411 16,700 1,680 Climbing Kansas City Center
01:20PM 39.1578 -95.4633 269° West 362 417 18,300 1,740 Climbing Kansas City Center
01:21PM 39.1547 -95.6156 269° West 377 434 20,300 1,560 Climbing Kansas City Center
01:22PM 39.1508 -95.7486 268° West 386 444 21,500 1,320 Climbing Kansas City Center
01:23PM 39.1464 -95.9125 268° West 407 468 23,100 1,380 Climbing Kansas City Center
01:24PM 39.1339 -96.0536 264° West 412 474 24,400 1,200 Climbing Kansas City Center
01:25PM 39.1114 -96.2217 260° West 423 487 25,600 1,200 Climbing Kansas City Center
01:26PM 39.0928 -96.3681 261° West 432 497 26,900 1,440 Climbing Kansas City Center
01:27PM 39.0708 -96.5378 261° West 431 496 28,700 1,500 Climbing Kansas City Center
01:28PM 39.0503 -96.6789 259° West 423 487 30,000 1,260 Climbing Kansas City Center
01:29PM 39.0286 -96.8439 260° West 420 483 31,400 1,260 Climbing Kansas City Center
01:30PM 39.0122 -96.9781 261° West 406 467 32,700 960 Climbing Kansas City Center
01:31PM 38.9881 -97.1339 259° West 399 459 33,400 600 Climbing Kansas City Center
01:32PM 38.9539 -97.2606 251° West 407 468 34,000 240 Climbing Kansas City Center
01:33PM 38.9181 -97.3906 251° West 392 451 34,000 -540 Level Kansas City Center
01:34PM 38.9153 -97.5411 269° West 383 441 33,000 -960 Descending Kansas City Center
01:35PM 38.9258 -97.6786 276° West 396 456 32,100 -480 Descending Kansas City Center
01:37PM 38.9328 -97.8453 273° West 418 481 32,000 -60 Descending Kansas City Center
01:38PM 38.8903 -97.9794 248° West 408 470 32,000  Level Kansas City Center
01:39PM 38.8522 -98.1150 250° West 406 467 32,000  Level Kansas City Center
01:40PM 38.8136 -98.2483 250° West 402 463 32,000  Level Kansas City Center
01:41PM 38.7744 -98.3825 250° West 403 464 32,000  Level Kansas City Center
01:42PM 38.7269 -98.5425 249° West 403 464 32,000  Level Kansas City Center
01:43PM 38.6867 -98.6814 250° West 405 466 32,000  Level Kansas City Center
01:44PM 38.6486 -98.8114 249° West 403 464 32,000 480 Level Kansas City Center
01:45PM 38.6081 -98.9442 249° West 402 463 33,000 900 Climbing Kansas City Center
01:46PM 38.5697 -99.0728 249° West 394 453 34,000 480 Climbing Kansas City Center
01:47PM 38.5314 -99.1981 249° West 384 442 34,000  Level Kansas City Center
01:48PM 38.4794 -99.3494 246° West 386 444 34,000  Level Kansas City Center
01:49PM 38.4394 -99.4733 248° West 382 440 34,000  Level Kansas City Center
01:50PM 38.3972 -99.6019 247° West 380 437 34,000  Level Kansas City Center
01:51PM 38.3517 -99.7400 247° West 380 437 34,000  Level Kansas City Center
01:52PM 38.3136 -99.8583 248° West 379 436 34,000  Level Kansas City Center
01:53PM 38.2669 -99.9950 247° West 377 434 34,000  Level Kansas City Center
01:54PM 38.2283 -100.1108 247° West 375 432 34,000  Level Kansas City Center
01:55PM 38.1883 -100.2281 247° West 376 433 34,000  Level Kansas City Center
01:56PM 38.1428 -100.3633 247° West 375 432 34,000  Level Kansas City Center
01:57PM 38.1031 -100.4800 247° West 376 433 34,000  Level Kansas City Center
01:58PM 38.0569 -100.6156 247° West 376 433 34,000  Level Kansas City Center
01:59PM 38.0122 -100.7500 247° West 374 430 34,000  Level Kansas City Center
02:00PM 37.9711 -100.8658 246° West 377 434 34,000  Level Kansas City Center
02:01PM 37.9247 -101.0011 247° West 378 435 34,000  Level Kansas City Center
02:02PM 37.8847 -101.1161 246° West 377 434 34,000  Level Kansas City Center
02:03PM 37.8375 -101.2497 246° West 376 433 34,000  Level Kansas City Center
02:04PM 37.7975 -101.3644 246° West 375 432 34,000  Level Kansas City Center
02:05PM 37.7500 -101.4981 246° West 375 432 34,000  Level Kansas City Center
02:07PM 37.7097 -101.6119 246° West 374 430 34,000  Level Kansas City Center
02:08PM 37.6628 -101.7458 246° West 374 430 34,000  Level Kansas City Center
02:09PM 37.6219 -101.8600 246° West 374 430 34,000  Level Kansas City Center
02:10PM 37.5739 -101.9922 245° Southwest 373 429 34,000  Level Kansas City Center
02:11PM 37.5331 -102.1067 246° West 374 430 34,000  Level Kansas City Center
02:12PM 37.4856 -102.2392 246° West 373 429 34,000  Level Kansas City Center
02:13PM 37.4439 -102.3528 245° Southwest 373 429 34,000  Level Kansas City Center
02:14PM 37.3956 -102.4847 245° Southwest 373 429 34,000  Level Kansas City Center
02:15PM 37.3653 -102.5739 247° West 373 429 34,000  Level Albuquerque Center
02:16PM 37.3236 -102.6875 245° Southwest 373 429 34,000  Level Albuquerque Center
02:17PM 37.2750 -102.8192 245° Southwest 372 428 34,000  Level Albuquerque Center
02:18PM 37.2339 -102.9317 245° Southwest 371 427 34,000  Level Albuquerque Center
02:19PM 37.1853 -103.0628 245° Southwest 371 427 34,000  Level Albuquerque Center
02:20PM 37.1419 -103.1756 244° Southwest 373 429 34,000  Level Albuquerque Center
02:22PM 37.0511 -103.4192 245° Southwest 372 428 34,000  Level Albuquerque Center
02:23PM 37.0019 -103.5481 244° Southwest 368 423 34,000  Level Albuquerque Center
02:24PM 36.9597 -103.6606 245° Southwest 370 426 34,000  Level Albuquerque Center
02:25PM 36.9178 -103.7728 245° Southwest 371 427 34,000  Level Albuquerque Center
02:26PM 36.8692 -103.9017 245° Southwest 367 422 34,000  Level Albuquerque Center
02:27PM 36.8267 -104.0119 244° Southwest 367 422 34,000  Level Albuquerque Center
02:28PM 36.7772 -104.1408 244° Southwest 367 422 34,000  Level Albuquerque Center
02:29PM 36.7339 -104.2503 244° Southwest 367 422 34,000  Level Albuquerque Center
02:30PM 36.6925 -104.3600 245° Southwest 365 420 34,000  Level Albuquerque Center
02:31PM 36.6461 -104.4767 244° Southwest 365 420 34,000  Level Albuquerque Center
02:32PM 36.5936 -104.6108 244° Southwest 366 421 34,000  Level Albuquerque Center
02:33PM 36.5489 -104.7253 244° Southwest 367 422 34,000  Level Albuquerque Center
02:34PM 36.5039 -104.8394 244° Southwest 366 421 34,000  Level Albuquerque Center
02:35PM 36.4622 -104.9572 246° West 368 423 34,000  Level Albuquerque Center
02:36PM 36.4244 -105.0744 248° West 366 421 34,000  Level Albuquerque Center
02:37PM 36.3850 -105.1906 247° West 364 419 34,000  Level Albuquerque Center
02:38PM 36.3439 -105.3106 247° West 371 427 34,000  Level Albuquerque Center
02:39PM 36.3044 -105.4261 247° West 366 421 34,000  Level Albuquerque Center
02:40PM 36.2622 -105.5569 248° West 363 418 34,000  Level Albuquerque Center
02:41PM 36.2236 -105.6711 247° West 363 418 34,000  Level Albuquerque Center
02:42PM 36.1847 -105.7856 247° West 361 415 34,000  Level Albuquerque Center
02:43PM 36.1375 -105.8917 241° Southwest 359 413 34,000  Level Albuquerque Center
02:44PM 36.0828 -105.9947 237° Southwest 359 413 34,000  Level Albuquerque Center
02:46PM 36.0192 -106.1161 237° Southwest 355 409 34,000  Level Albuquerque Center
02:47PM 35.9661 -106.2178 237° Southwest 355 409 34,000  Level Albuquerque Center
02:48PM 35.9075 -106.3283 237° Southwest 356 410 34,000  Level Albuquerque Center
02:49PM 35.8531 -106.4281 236° Southwest 353 406 34,000  Level Albuquerque Center
02:50PM 35.8008 -106.5375 240° Southwest 356 410 34,000  Level Albuquerque Center
02:51PM 35.7553 -106.6375 241° Southwest 354 407 34,000  Level Albuquerque Center
02:52PM 35.7022 -106.7542 241° Southwest 349 402 34,000  Level Albuquerque Center
02:53PM 35.6578 -106.8539 241° Southwest 347 399 34,000  Level Albuquerque Center
02:54PM 35.6208 -106.9744 249° West 349 402 34,000  Level Albuquerque Center
02:55PM 35.5856 -107.0925 250° West 344 396 34,000  Level Albuquerque Center
02:56PM 35.5561 -107.1917 250° West 348 400 34,000  Level Albuquerque Center
02:57PM 35.5197 -107.3150 250° West 345 397 34,000  Level Albuquerque Center
02:58PM 35.4881 -107.4194 250° West 343 395 34,000  Level Albuquerque Center
02:59PM 35.4492 -107.5439 249° West 346 398 34,000  Level Albuquerque Center
03:00PM 35.4164 -107.6494 249° West 346 398 34,000  Level Albuquerque Center
03:01PM 35.3789 -107.7733 250° West 347 399 34,000  Level Albuquerque Center
03:02PM 35.3417 -107.8767 246° West 350 403 34,000  Level Albuquerque Center
03:03PM 35.2744 -107.9808 232° Southwest 347 399 34,000  Level Albuquerque Center
03:04PM 35.2144 -108.0689 230° Southwest 348 400 34,000  Level Albuquerque Center
03:05PM 35.1567 -108.1572 231° Southwest 348 400 34,000  Level Albuquerque Center
03:06PM 35.0900 -108.2619 232° Southwest 348 400 34,000  Level Albuquerque Center
03:07PM 35.0361 -108.3522 234° Southwest 345 397 34,000  Level Albuquerque Center
03:08PM 34.9744 -108.4592 235° Southwest 344 396 34,000  Level Albuquerque Center
03:09PM 34.9219 -108.5514 235° Southwest 344 396 34,000  Level Albuquerque Center
03:10PM 34.8714 -108.6706 243° Southwest 349 402 34,000  Level Albuquerque Center
03:11PM 34.8361 -108.7756 248° West 349 402 34,000  Level Albuquerque Center
03:12PM 34.8183 -108.9075 261° West 351 404 34,000  Level Albuquerque Center
03:13PM 34.8047 -109.0231 262° West 356 410 34,000  Level Albuquerque Center
03:14PM 34.7922 -109.1403 263° West 361 415 34,000  Level Albuquerque Center
03:15PM 34.7756 -109.2794 262° West 367 422 34,000  Level Albuquerque Center
03:16PM 34.7628 -109.3975 263° West 367 422 34,000  Level Albuquerque Center
03:17PM 34.7456 -109.5369 261° West 370 426 34,000  Level Albuquerque Center
03:19PM 34.7325 -109.6556 262° West 371 427 34,000  Level Albuquerque Center
03:20PM 34.7158 -109.7939 262° West 370 426 34,000  Level Albuquerque Center
03:21PM 34.6892 -109.9089 254° West 372 428 34,000  Level Albuquerque Center
03:22PM 34.6419 -110.0347 246° West 367 422 34,000  Level Albuquerque Center
03:23PM 34.6025 -110.1492 247° West 379 436 34,000  Level Albuquerque Center
03:24PM 34.5633 -110.2600 247° West 376 433 34,000 -60 Level Albuquerque Center
03:25PM 34.5114 -110.3811 243° Southwest 364 419 33,900 -540 Descending Albuquerque Center
03:26PM 34.4764 -110.4886 248° West 379 436 32,900 -1,680 Descending Albuquerque Center
03:27PM 34.4244 -110.6247 245° Southwest 376 433 30,400 -2,340 Descending Albuquerque Center
03:28PM 34.3806 -110.7369 245° Southwest 368 423 28,200 -2,100 Descending Albuquerque Center
03:29PM 34.3281 -110.8364 237° Southwest 357 411 26,100 -1,920 Descending Albuquerque Center
03:30PM 34.2625 -110.9150 225° Southwest 336 387 24,200 -1,920 Descending Albuquerque Center
03:31PM 34.2033 -110.9903 226° Southwest 318 366 22,300 -1,800 Descending Albuquerque Center
03:32PM 34.1467 -111.0647 227° Southwest 307 353 20,500 -1,800 Descending Albuquerque Center
03:33PM 34.0867 -111.1411 227° Southwest 308 354 18,600 -2,160 Descending Albuquerque Center
03:34PM 34.0172 -111.2308 227° Southwest 308 354 16,200 -1,980 Descending Albuquerque Center
03:35PM 33.9639 -111.3006 227° Southwest 289 333 14,500 -1,680 Descending Albuquerque Center
03:36PM 33.9111 -111.3667 226° Southwest 276 318 12,800 -1,380 Descending Albuquerque Center
03:37PM 33.8594 -111.4267 224° Southwest 259 298 11,800 -900 Descending Albuquerque Center
03:38PM 33.8031 -111.4722 214° Southwest 245 282 11,000 -660 Descending Albuquerque Center
03:39PM 33.7506 -111.5186 216° Southwest 235 270 10,500 -1,080 Descending Albuquerque Center
03:40PM 33.6939 -111.5606 212° Southwest 237 273 8,900 -1,260 Descending Albuquerque Center
03:41PM 33.6364 -111.6022 211° Southwest 240 276 7,900 -1,200 Descending Albuquerque Center
03:42PM 33.5778 -111.6453 211° Southwest 206 237 6,500 -960 Descending Albuquerque Center
03:43PM 33.5247 -111.6836 211° Southwest 219 252 6,000 -840 Descending Albuquerque Center
03:44PM 33.4853 -111.7350 227° Southwest 218 251 4,800 -1,020 Descending Albuquerque Center
03:45PM 33.4561 -111.7986 241° Southwest 216 249 4,000 -780 Descending Albuquerque Center
03:46PM 33.4419 -111.8614 255° West 198 228 3,200 -840 Descending Albuquerque Center
03:47PM 33.4406 -111.9206 268° West 181 208 2,300 -840 Descending Albuquerque Center
03:48PM 33.4414 -111.9672 271° West 146 168 1,600 -540 Descending Albuquerque Center
03:49PM 33.4453 -112.0214 275° West 143 165 1,200 -420 Descending Albuquerque Center
03:51PM 33.4343 -112.0116 90° East  Level Estimated